createdAt,value
2022-07-29T00:00:47.652Z,3.15
2022-07-29T00:01:52.517Z,3.48
2022-07-29T00:02:56.094Z,3.66
2022-07-29T00:03:59.585Z,3.31
2022-07-29T00:05:07.440Z,3.87
2022-07-29T00:06:13.632Z,3.72
2022-07-29T00:07:18.734Z,3.61
2022-07-29T00:08:22.047Z,4.04
2022-07-29T00:09:30.685Z,3.33
2022-07-29T00:10:35.144Z,3.69
2022-07-29T00:11:39.376Z,3.80
2022-07-29T00:12:43.056Z,3.69
2022-07-29T00:13:50.780Z,3.78
2022-07-29T00:14:54.526Z,3.80
2022-07-29T00:15:58.047Z,3.63
2022-07-29T00:17:03.386Z,3.30
2022-07-29T00:18:10.410Z,3.74
2022-07-29T00:19:15.962Z,3.64
2022-07-29T00:20:19.622Z,4.04
2022-07-29T00:21:24.400Z,3.62
2022-07-29T00:22:30.245Z,3.52
2022-07-29T00:23:36.817Z,3.49
2022-07-29T00:24:45.186Z,3.47
2022-07-29T00:25:48.870Z,3.68
2022-07-29T00:26:52.824Z,3.08
2022-07-29T00:53:37.365Z,3.31
2022-07-29T00:54:44.483Z,4.01
2022-07-29T00:55:47.518Z,4.09
2022-07-29T00:56:51.810Z,3.93
2022-07-29T00:57:55.976Z,4.02
2022-07-29T00:59:00.733Z,4.34
2022-07-29T01:00:13.470Z,3.59
2022-07-29T01:01:17.006Z,3.96
2022-07-29T01:02:19.803Z,3.74
2022-07-29T01:03:23.711Z,3.67
2022-07-29T01:04:27.414Z,3.69
2022-07-29T01:05:50.729Z,3.54
2022-07-29T01:06:39.343Z,4.04
2022-07-29T01:07:46.334Z,3.74
2022-07-29T01:08:55.078Z,3.79
2022-07-29T01:10:02.801Z,4.10
2022-07-29T01:11:06.341Z,3.61
2022-07-29T01:12:11.834Z,3.42
2022-07-29T01:13:24.110Z,4.27
2022-07-29T01:14:36.282Z,3.59
2022-07-29T01:15:48.555Z,3.39
2022-07-29T01:16:54.951Z,3.47
2022-07-29T01:18:05.514Z,3.77
2022-07-29T01:21:03.443Z,3.38
2022-07-29T01:22:44.654Z,3.32
2022-07-29T01:24:15.558Z,3.32
2022-07-29T01:25:45.788Z,3.55
2022-07-29T01:27:18.219Z,3.58
2022-07-29T01:28:42.133Z,3.83
2022-07-29T01:29:58.840Z,3.38
2022-07-29T01:31:06.732Z,3.53
2022-07-29T01:33:55.246Z,3.86
2022-07-29T01:35:24.058Z,3.84
2022-07-29T01:36:33.239Z,3.85
2022-07-29T01:37:47.623Z,3.77
2022-07-29T01:39:00.344Z,3.88
2022-07-29T01:40:07.419Z,3.83
2022-07-29T01:41:14.743Z,3.69
2022-07-29T01:42:28.198Z,3.74
2022-07-29T01:43:41.725Z,3.78
2022-07-29T01:45:20.117Z,3.80
2022-07-29T01:46:33.573Z,3.74
2022-07-29T01:47:40.729Z,3.48
2022-07-29T01:48:50.506Z,4.08
2022-07-29T01:49:58.263Z,3.61
2022-07-29T01:51:11.452Z,3.85
2022-07-29T01:52:30.553Z,4.12
2022-07-29T01:53:43.140Z,4.17
2022-07-29T01:54:58.625Z,4.03
2022-07-29T01:56:04.581Z,3.66
2022-07-29T01:57:11.142Z,3.72
2022-07-29T01:58:20.979Z,3.83
2022-07-29T01:59:27.041Z,3.72
2022-07-29T02:00:34.952Z,3.97
2022-07-29T02:01:43.410Z,3.88
2022-07-29T02:02:50.269Z,4.14
2022-07-29T02:03:56.219Z,3.66
2022-07-29T02:05:03.676Z,3.78
2022-07-29T02:06:10.752Z,3.87
2022-07-29T02:07:17.598Z,3.72
2022-07-29T02:08:22.416Z,3.78
2022-07-29T02:09:32.058Z,3.85
2022-07-29T02:10:37.886Z,4.09
2022-07-29T02:11:43.837Z,3.88
2022-07-29T02:12:50.719Z,3.66
2022-07-29T02:13:57.896Z,4.03
2022-07-29T02:15:03.857Z,4.11
2022-07-29T02:16:11.223Z,4.16
2022-07-29T02:17:17.156Z,4.06
2022-07-29T02:18:22.998Z,4.36
2022-07-29T02:19:28.705Z,4.10
2022-07-29T02:20:35.122Z,4.13
2022-07-29T02:21:40.661Z,4.02
2022-07-29T02:22:46.692Z,4.18
2022-07-29T02:23:54.690Z,4.28
2022-07-29T02:25:00.979Z,3.99
2022-07-29T02:26:05.217Z,4.13
2022-07-29T02:27:14.129Z,4.22
2022-07-29T02:28:20.701Z,3.84
2022-07-29T02:29:28.227Z,4.12
2022-07-29T02:30:33.561Z,3.98
2022-07-29T02:31:39.309Z,4.44
2022-07-29T02:32:43.809Z,3.98
2022-07-29T02:33:47.913Z,4.18
2022-07-29T02:34:53.001Z,3.83
2022-07-29T02:35:57.687Z,3.84
2022-07-29T02:37:04.861Z,3.87
2022-07-29T02:38:29.797Z,4.42
2022-07-29T02:39:34.216Z,4.28
2022-07-29T02:40:39.305Z,4.29
2022-07-29T02:41:57.327Z,4.31
2022-07-29T02:43:03.349Z,4.74
2022-07-29T02:44:21.594Z,4.19
2022-07-29T02:45:25.554Z,4.14
2022-07-29T02:46:32.122Z,3.92
2022-07-29T02:47:41.906Z,4.10
2022-07-29T02:48:49.789Z,4.05
2022-07-29T02:49:56.811Z,3.92
2022-07-29T02:51:12.378Z,4.13
2022-07-29T02:53:40.788Z,4.44
2022-07-29T02:54:46.996Z,4.06
2022-07-29T02:56:04.835Z,4.98
2022-07-29T02:57:31.237Z,3.68
2022-07-29T02:58:44.644Z,4.05
2022-07-29T02:59:51.391Z,4.26
2022-07-29T03:00:57.544Z,4.16
2022-07-29T03:02:12.962Z,4.21
2022-07-29T03:03:18.811Z,3.82
2022-07-29T03:04:31.071Z,4.27
2022-07-29T03:05:37.996Z,4.04
2022-07-29T03:06:46.466Z,4.27
2022-07-29T03:07:58.043Z,4.05
2022-07-29T03:09:01.389Z,3.96
2022-07-29T03:10:13.763Z,3.81
2022-07-29T03:11:18.620Z,3.76
2022-07-29T03:12:23.570Z,3.50
2022-07-29T03:13:29.507Z,4.06
2022-07-29T03:14:36.060Z,3.72
2022-07-29T03:15:41.700Z,3.49
2022-07-29T03:16:45.666Z,3.63
2022-07-29T03:17:52.730Z,3.74
2022-07-29T03:18:57.268Z,3.52
2022-07-29T03:20:01.506Z,3.51
2022-07-29T03:21:13.078Z,3.65
2022-07-29T03:22:17.045Z,3.43
2022-07-29T03:23:25.439Z,3.90
2022-07-29T03:24:33.012Z,3.39
2022-07-29T03:25:38.250Z,3.48
2022-07-29T03:26:42.299Z,3.49
2022-07-29T03:27:46.302Z,3.42
2022-07-29T03:28:50.223Z,3.24
2022-07-29T03:29:54.845Z,3.43
2022-07-29T03:31:01.728Z,3.52
2022-07-29T03:32:08.669Z,3.54
2022-07-29T03:33:13.783Z,3.42
2022-07-29T03:34:18.075Z,3.13
2022-07-29T03:35:22.188Z,3.28
2022-07-29T03:36:30.116Z,3.57
2022-07-29T03:37:38.452Z,3.57
2022-07-29T03:38:45.841Z,3.25
2022-07-29T03:39:53.402Z,3.60
2022-07-29T03:41:01.931Z,3.71
2022-07-29T03:42:08.330Z,3.25
2022-07-29T03:43:17.779Z,3.36
2022-07-29T03:44:24.469Z,3.53
2022-07-29T03:45:32.728Z,3.66
2022-07-29T03:46:47.397Z,3.46
2022-07-29T03:47:59.950Z,3.46
2022-07-29T03:49:02.837Z,3.10
2022-07-29T03:50:14.519Z,3.41
2022-07-29T03:51:18.733Z,3.37
2022-07-29T03:52:24.500Z,3.11
2022-07-29T03:53:27.598Z,2.84
2022-07-29T03:54:32.092Z,3.17
2022-07-29T03:55:44.905Z,2.79
2022-07-29T03:56:51.194Z,2.98
2022-07-29T03:57:57.038Z,3.02
2022-07-29T03:59:02.900Z,3.23
2022-07-29T04:00:08.345Z,2.98
2022-07-29T04:01:13.877Z,3.19
2022-07-29T04:02:22.324Z,3.36
2022-07-29T04:03:23.797Z,3.08
2022-07-29T04:04:29.259Z,3.02
2022-07-29T04:06:48.560Z,2.76
2022-07-29T04:07:52.977Z,3.36
2022-07-29T04:09:00.196Z,3.16
2022-07-29T04:10:04.300Z,2.72
2022-07-29T04:11:08.193Z,2.82
2022-07-29T04:12:12.261Z,2.87
2022-07-29T04:13:15.931Z,2.89
2022-07-29T04:14:23.937Z,2.76
2022-07-29T04:15:30.947Z,2.60
2022-07-29T04:16:35.230Z,2.61
2022-07-29T04:17:40.979Z,3.09
2022-07-29T04:18:43.801Z,2.34
2022-07-29T04:19:51.024Z,2.87
2022-07-29T04:20:54.602Z,2.86
2022-07-29T04:22:00.162Z,2.65
2022-07-29T04:23:05.647Z,2.91
2022-07-29T04:24:09.608Z,3.12
2022-07-29T04:25:14.019Z,3.19
2022-07-29T04:26:22.850Z,2.76
2022-07-29T04:27:30.293Z,2.47
2022-07-29T04:28:34.556Z,2.67
2022-07-29T04:29:37.898Z,2.45
2022-07-29T04:30:43.206Z,2.04
2022-07-29T04:31:46.722Z,2.41
2022-07-29T04:32:50.565Z,2.62
2022-07-29T04:33:55.464Z,2.16
2022-07-29T04:35:00.082Z,1.86
2022-07-29T04:36:04.209Z,2.11
2022-07-29T04:37:08.579Z,2.10
2022-07-29T04:38:15.795Z,1.69
2022-07-29T04:39:22.959Z,1.81
2022-07-29T04:40:25.984Z,2.03
2022-07-29T04:41:33.288Z,2.12
2022-07-29T04:42:36.413Z,1.84
2022-07-29T04:43:41.910Z,1.97
2022-07-29T04:44:45.660Z,2.04
2022-07-29T04:45:50.340Z,2.05
2022-07-29T04:46:55.241Z,1.93
2022-07-29T04:49:14.513Z,1.76
2022-07-29T04:50:20.358Z,2.16
2022-07-29T04:51:25.612Z,1.97
2022-07-29T04:52:44.037Z,1.92
2022-07-29T04:53:47.627Z,1.69
2022-07-29T04:54:51.150Z,1.63
2022-07-29T04:55:54.721Z,1.74
2022-07-29T04:56:59.372Z,1.53
2022-07-29T04:58:01.697Z,1.43
2022-07-29T04:59:07.154Z,1.56
2022-07-29T05:01:25.393Z,1.70
2022-07-29T05:02:29.151Z,1.69
2022-07-29T05:03:33.042Z,1.58
2022-07-29T05:04:36.794Z,1.66
2022-07-29T05:05:40.259Z,1.72
2022-07-29T05:06:43.902Z,1.65
2022-07-29T05:07:48.209Z,1.50
2022-07-29T05:08:51.749Z,1.68
2022-07-29T05:09:56.406Z,1.84
2022-07-29T05:11:11.650Z,1.87
2022-07-29T05:12:07.408Z,1.98
2022-07-29T05:13:11.102Z,1.75
2022-07-29T05:14:22.284Z,1.76
2022-07-29T05:15:27.615Z,1.89
2022-07-29T05:16:31.117Z,1.83
2022-07-29T05:17:36.606Z,1.96
2022-07-29T05:18:40.760Z,2.05
2022-07-29T05:19:45.274Z,1.99
2022-07-29T05:20:48.127Z,1.89
2022-07-29T05:21:54.385Z,2.02
2022-07-29T05:22:59.878Z,1.87
2022-07-29T05:24:02.898Z,1.96
2022-07-29T05:25:13.362Z,1.68
2022-07-29T05:26:17.562Z,2.06
2022-07-29T05:27:21.332Z,1.85
2022-07-29T05:28:31.606Z,1.87
2022-07-29T05:29:43.983Z,1.68
2022-07-29T05:30:42.372Z,1.56
2022-07-29T05:31:47.271Z,1.71
2022-07-29T05:32:51.852Z,1.61
2022-07-29T05:33:58.492Z,1.67
2022-07-29T05:35:02.209Z,1.72
2022-07-29T05:36:08.592Z,1.59
2022-07-29T05:37:12.294Z,1.49
2022-07-29T05:38:17.350Z,1.77
2022-07-29T05:39:22.180Z,1.75
2022-07-29T05:40:26.526Z,1.68
2022-07-29T05:41:38.856Z,1.58
2022-07-29T05:42:42.728Z,1.61
2022-07-29T05:43:46.330Z,1.61
2022-07-29T05:44:51.192Z,1.61
2022-07-29T05:45:56.301Z,1.42
2022-07-29T05:47:02.822Z,1.56
2022-07-29T05:48:10.229Z,1.70
2022-07-29T05:49:26.965Z,1.59
2022-07-29T05:50:22.011Z,1.72
2022-07-29T05:51:27.076Z,1.62
2022-07-29T05:52:30.667Z,1.76
2022-07-29T05:53:36.679Z,1.52
2022-07-29T05:54:45.773Z,1.62
2022-07-29T05:55:53.854Z,1.51
2022-07-29T05:56:58.372Z,1.50
2022-07-29T05:58:03.406Z,1.42
2022-07-29T05:59:06.913Z,1.56
2022-07-29T06:00:14.505Z,1.56
2022-07-29T06:01:18.385Z,1.43
2022-07-29T06:02:22.157Z,1.55
2022-07-29T06:03:25.974Z,1.16
2022-07-29T06:04:30.014Z,1.66
2022-07-29T06:05:33.823Z,1.69
2022-07-29T06:06:40.591Z,1.16
2022-07-29T06:07:50.191Z,1.30
2022-07-29T06:08:50.039Z,1.51
2022-07-29T06:09:53.568Z,1.69
2022-07-29T06:10:57.653Z,1.31
2022-07-29T06:12:00.595Z,1.55
2022-07-29T06:13:04.538Z,1.43
2022-07-29T06:14:11.107Z,1.71
2022-07-29T06:15:14.768Z,1.34
2022-07-29T06:16:26.168Z,1.41
2022-07-29T06:17:25.328Z,1.36
2022-07-29T06:18:28.105Z,1.42
2022-07-29T06:19:31.948Z,1.22
2022-07-29T06:20:37.261Z,1.61
2022-07-29T06:21:46.347Z,1.27
2022-07-29T06:22:51.762Z,1.33
2022-07-29T06:23:55.271Z,1.30
2022-07-29T06:25:04.487Z,1.32
2022-07-29T06:26:07.958Z,1.28
2022-07-29T06:28:28.498Z,1.22
2022-07-29T06:29:33.833Z,1.35
2022-07-29T06:30:37.212Z,1.38
2022-07-29T06:31:42.282Z,1.21
2022-07-29T06:32:44.898Z,1.16
2022-07-29T06:33:48.539Z,1.27
2022-07-29T06:35:24.516Z,1.38
2022-07-29T06:36:05.678Z,1.34
2022-07-29T06:37:11.236Z,1.19
2022-07-29T06:38:33.866Z,1.11
2022-07-29T06:39:21.996Z,1.24
2022-07-29T06:41:52.178Z,1.64
2022-07-29T06:42:57.518Z,1.38
2022-07-29T06:44:00.145Z,1.49
2022-07-29T06:45:08.999Z,1.41
2022-07-29T06:46:12.539Z,1.41
2022-07-29T06:47:17.006Z,1.44
2022-07-29T06:48:21.018Z,1.31
2022-07-29T06:49:25.399Z,1.39
2022-07-29T06:50:30.032Z,1.23
2022-07-29T06:51:33.353Z,1.51
2022-07-29T06:52:36.715Z,1.16
2022-07-29T06:53:58.182Z,1.22
2022-07-29T06:54:49.616Z,1.46
2022-07-29T06:56:08.097Z,1.38
2022-07-29T06:57:14.353Z,1.32
2022-07-29T06:58:19.699Z,1.40
2022-07-29T06:59:33.419Z,1.41
2022-07-29T07:00:33.284Z,1.73
2022-07-29T07:01:40.495Z,1.71
2022-07-29T07:02:46.973Z,1.56
2022-07-29T07:03:50.140Z,1.30
2022-07-29T07:04:54.106Z,1.55
2022-07-29T07:06:00.246Z,1.44
2022-07-29T07:07:07.168Z,1.38
2022-07-29T07:08:12.624Z,1.56
2022-07-29T07:09:15.956Z,1.52
2022-07-29T07:10:28.778Z,1.74
2022-07-29T07:11:32.743Z,1.31
2022-07-29T07:12:37.645Z,1.70
2022-07-29T07:13:42.813Z,1.69
2022-07-29T07:14:46.251Z,1.62
2022-07-29T07:15:54.342Z,1.46
2022-07-29T07:16:55.649Z,1.69
2022-07-29T07:17:59.867Z,1.47
2022-07-29T07:19:04.962Z,1.62
2022-07-29T07:20:12.328Z,1.31
2022-07-29T07:21:19.302Z,1.49
2022-07-29T07:22:23.355Z,1.27
2022-07-29T07:23:34.415Z,1.56
2022-07-29T07:24:38.828Z,1.10
2022-07-29T07:25:42.389Z,1.54
2022-07-29T07:26:49.114Z,1.39
2022-07-29T07:27:57.847Z,1.46
2022-07-29T07:29:05.230Z,1.38
2022-07-29T07:30:10.698Z,1.37
2022-07-29T07:31:13.962Z,1.24
2022-07-29T07:32:22.361Z,1.17
2022-07-29T07:33:26.501Z,1.39
2022-07-29T07:34:30.931Z,1.41
2022-07-29T07:35:34.870Z,1.46
2022-07-29T07:36:38.894Z,1.49
2022-07-29T07:37:46.378Z,1.40
2022-07-29T07:38:50.093Z,1.51
2022-07-29T07:40:01.564Z,1.40
2022-07-29T07:41:05.259Z,1.64
2022-07-29T07:42:30.404Z,1.58
2022-07-29T07:43:34.188Z,1.66
2022-07-29T07:44:57.293Z,1.51
2022-07-29T07:45:42.487Z,1.57
2022-07-29T07:46:46.061Z,1.48
2022-07-29T07:47:48.834Z,1.49
2022-07-29T07:48:55.193Z,1.59
2022-07-29T07:49:58.702Z,1.84
2022-07-29T07:51:02.271Z,1.43
2022-07-29T07:52:07.135Z,1.69
2022-07-29T07:53:18.321Z,1.71
2022-07-29T07:54:22.189Z,1.62
2022-07-29T07:55:26.364Z,1.49
2022-07-29T07:56:35.455Z,1.57
2022-07-29T07:57:39.174Z,1.52
2022-07-29T07:58:43.305Z,1.38
2022-07-29T07:59:48.337Z,1.91
2022-07-29T08:00:51.663Z,1.70
2022-07-29T08:01:56.621Z,1.30
2022-07-29T08:02:59.508Z,1.46
2022-07-29T08:04:02.989Z,1.62
2022-07-29T08:06:23.252Z,1.60
2022-07-29T08:07:27.025Z,1.83
2022-07-29T08:08:29.571Z,1.77
2022-07-29T08:09:34.370Z,2.07
2022-07-29T08:10:57.207Z,1.74
2022-07-29T08:12:02.890Z,1.82
2022-07-29T08:13:07.932Z,1.64
2022-07-29T08:14:14.490Z,1.58
2022-07-29T08:15:17.637Z,1.46
2022-07-29T08:16:21.973Z,1.64
2022-07-29T08:17:26.539Z,2.27
2022-07-29T08:18:32.353Z,1.47
2022-07-29T08:19:36.058Z,1.48
2022-07-29T08:20:41.223Z,1.86
2022-07-29T08:21:44.782Z,1.88
2022-07-29T08:22:48.808Z,2.06
2022-07-29T08:24:01.823Z,1.36
2022-07-29T08:25:03.758Z,1.47
2022-07-29T08:26:10.155Z,1.69
2022-07-29T08:27:40.775Z,1.47
2022-07-29T08:28:20.904Z,1.40
2022-07-29T08:30:39.867Z,1.61
2022-07-29T08:31:44.044Z,1.65
2022-07-29T08:32:54.881Z,1.71
2022-07-29T08:34:04.763Z,1.47
2022-07-29T08:35:10.958Z,1.52
2022-07-29T08:36:16.091Z,1.54
2022-07-29T08:37:19.976Z,1.61
2022-07-29T08:38:23.936Z,1.59
2022-07-29T08:39:27.422Z,1.46
2022-07-29T08:40:34.605Z,1.45
2022-07-29T08:41:39.219Z,1.48
2022-07-29T08:42:42.729Z,1.62
2022-07-29T08:43:49.919Z,1.37
2022-07-29T08:44:56.043Z,1.62
2022-07-29T08:46:02.715Z,1.71
2022-07-29T08:47:06.969Z,1.69
2022-07-29T08:48:17.248Z,1.58
2022-07-29T08:49:21.260Z,1.47
2022-07-29T08:50:28.960Z,1.76
2022-07-29T08:51:35.275Z,1.69
2022-07-29T08:52:44.003Z,1.72
2022-07-29T08:53:53.342Z,1.50
2022-07-29T08:54:57.035Z,1.64
2022-07-29T08:56:00.400Z,1.44
2022-07-29T08:57:04.692Z,1.70
2022-07-29T08:58:11.152Z,1.65
2022-07-29T08:59:14.818Z,1.39
2022-07-29T09:00:18.749Z,1.54
2022-07-29T09:01:36.548Z,1.47
2022-07-29T09:02:39.354Z,1.58
2022-07-29T09:03:45.917Z,1.72
2022-07-29T09:04:51.112Z,1.56
2022-07-29T09:07:12.403Z,1.62
2022-07-29T09:08:17.226Z,1.61
2022-07-29T09:09:21.581Z,1.73
2022-07-29T09:10:26.142Z,1.69
2022-07-29T09:11:30.207Z,1.77
2022-07-29T09:12:37.962Z,1.59
2022-07-29T09:13:42.076Z,1.44
2022-07-29T09:14:46.605Z,1.44
2022-07-29T09:15:50.594Z,1.75
2022-07-29T09:17:00.113Z,1.32
2022-07-29T09:18:07.631Z,1.73
2022-07-29T09:20:57.248Z,1.59
2022-07-29T09:22:03.836Z,1.47
2022-07-29T09:23:09.869Z,1.57
2022-07-29T09:24:16.443Z,1.47
2022-07-29T09:25:42.605Z,1.76
2022-07-29T09:26:47.685Z,1.40
2022-07-29T09:27:51.394Z,1.64
2022-07-29T09:28:57.906Z,1.44
2022-07-29T09:30:04.024Z,1.50
2022-07-29T09:31:09.557Z,1.50
2022-07-29T09:32:13.774Z,1.52
2022-07-29T09:33:17.488Z,1.71
2022-07-29T09:34:40.789Z,1.49
2022-07-29T09:35:56.361Z,1.49
2022-07-29T09:36:53.369Z,1.52
2022-07-29T09:37:58.590Z,1.46
2022-07-29T09:39:04.672Z,1.51
2022-07-29T09:40:18.234Z,1.48
2022-07-29T09:42:40.009Z,1.58
2022-07-29T09:43:49.750Z,1.58
2022-07-29T09:44:53.739Z,1.34
2022-07-29T09:45:57.176Z,1.43
2022-07-29T09:47:10.382Z,1.58
2022-07-29T09:48:25.217Z,1.26
2022-07-29T09:49:27.950Z,1.44
2022-07-29T09:50:42.600Z,1.44
2022-07-29T09:51:46.730Z,1.46
2022-07-29T09:52:54.029Z,1.57
2022-07-29T09:53:59.383Z,1.61
2022-07-29T09:55:07.521Z,1.58
2022-07-29T09:56:12.031Z,1.43
2022-07-29T09:57:37.797Z,1.34
2022-07-29T09:58:44.632Z,1.68
2022-07-29T09:59:59.662Z,1.52
2022-07-29T10:01:03.647Z,1.31
2022-07-29T10:02:16.727Z,1.59
2022-07-29T10:03:26.293Z,1.51
2022-07-29T10:04:41.234Z,1.56
2022-07-29T10:05:46.776Z,1.59
2022-07-29T10:07:07.170Z,1.50
2022-07-29T10:08:16.526Z,1.79
2022-07-29T10:09:19.240Z,1.65
2022-07-29T10:11:49.181Z,1.40
2022-07-29T10:12:54.452Z,1.52
2022-07-29T10:13:59.706Z,1.47
2022-07-29T10:15:05.757Z,1.49
2022-07-29T10:16:11.069Z,1.36
2022-07-29T10:17:14.730Z,1.61
2022-07-29T10:18:23.812Z,1.62
2022-07-29T10:19:34.357Z,1.58
2022-07-29T10:20:41.814Z,1.43
2022-07-29T10:21:45.806Z,1.60
2022-07-29T10:22:54.702Z,1.78
2022-07-29T10:24:04.221Z,1.74
2022-07-29T10:25:11.839Z,1.62
2022-07-29T10:26:18.237Z,1.48
2022-07-29T10:27:21.363Z,1.68
2022-07-29T10:28:26.477Z,1.81
2022-07-29T10:29:39.896Z,2.19
2022-07-29T10:30:47.334Z,1.61
2022-07-29T10:32:28.116Z,1.83
2022-07-29T10:35:13.173Z,1.74
2022-07-29T10:36:36.100Z,1.74
2022-07-29T10:37:59.427Z,1.92
2022-07-29T10:39:22.330Z,1.82
2022-07-29T10:40:52.876Z,2.11
2022-07-29T10:42:16.954Z,1.67
2022-07-29T10:43:25.791Z,1.59
2022-07-29T10:44:31.265Z,1.43
2022-07-29T10:45:35.609Z,1.59
2022-07-29T10:46:42.879Z,1.75
2022-07-29T10:47:46.375Z,1.82
2022-07-29T10:49:15.315Z,1.95
2022-07-29T10:50:18.496Z,1.91
2022-07-29T10:51:25.124Z,1.89
2022-07-29T10:52:56.935Z,1.83
2022-07-29T10:54:01.966Z,1.78
2022-07-29T10:55:07.004Z,1.67
2022-07-29T10:57:53.569Z,1.71
2022-07-29T10:59:25.609Z,1.63
2022-07-29T11:00:33.152Z,1.44
2022-07-29T11:01:39.298Z,1.79
2022-07-29T11:02:46.433Z,1.99
2022-07-29T11:03:57.222Z,1.88
2022-07-29T11:05:15.442Z,1.83
2022-07-29T11:06:26.848Z,1.63
2022-07-29T11:07:42.650Z,1.70
2022-07-29T11:08:36.733Z,1.78
2022-07-29T11:09:43.875Z,1.74
2022-07-29T11:10:56.099Z,1.69
2022-07-29T11:12:04.074Z,1.67
2022-07-29T11:13:07.788Z,1.79
2022-07-29T11:14:10.682Z,2.06
2022-07-29T11:15:20.680Z,1.93
2022-07-29T11:17:47.260Z,2.03
2022-07-29T11:18:38.114Z,1.83
2022-07-29T11:19:51.992Z,2.02
2022-07-29T11:20:54.160Z,2.06
2022-07-29T11:22:00.110Z,1.85
2022-07-29T11:23:22.406Z,2.04
2022-07-29T11:24:35.369Z,1.89
2022-07-29T11:25:42.830Z,2.18
2022-07-29T11:27:54.202Z,1.79
2022-07-29T11:29:09.001Z,2.03
2022-07-29T11:30:14.527Z,1.86
2022-07-29T11:31:40.514Z,2.10
2022-07-29T11:32:48.765Z,1.89
2022-07-29T11:33:56.889Z,1.73
2022-07-29T11:35:38.123Z,1.84
2022-07-29T11:36:36.791Z,2.30
2022-07-29T11:37:42.546Z,1.66
2022-07-29T11:38:47.885Z,1.99
2022-07-29T11:40:01.976Z,1.73
2022-07-29T11:41:27.426Z,1.79
2022-07-29T11:42:42.015Z,2.00
2022-07-29T11:43:52.838Z,1.67
2022-07-29T11:46:09.228Z,1.64
2022-07-29T11:47:14.297Z,1.61
2022-07-29T11:48:28.069Z,1.96
2022-07-29T11:49:31.602Z,1.81
2022-07-29T11:50:44.364Z,1.87
2022-07-29T11:51:49.161Z,1.59
2022-07-29T11:52:56.787Z,1.75
2022-07-29T11:54:05.304Z,1.70
2022-07-29T11:55:11.984Z,2.01
2022-07-29T11:56:19.890Z,1.92
2022-07-29T11:57:35.954Z,1.73
2022-07-29T11:58:34.469Z,1.71
2022-07-29T11:59:43.305Z,1.96
2022-07-29T12:00:48.454Z,1.83
2022-07-29T12:27:29.382Z,1.91
2022-07-29T12:30:03.986Z,1.71
2022-07-29T12:31:08.503Z,1.91
2022-07-29T12:32:14.412Z,1.70
2022-07-29T12:33:32.275Z,2.06
2022-07-29T12:34:37.662Z,1.95
2022-07-29T12:35:41.985Z,2.00
2022-07-29T12:36:46.179Z,2.04
2022-07-29T12:37:53.287Z,2.23
2022-07-29T12:39:05.552Z,2.02
2022-07-29T12:40:13.933Z,2.05
2022-07-29T12:41:18.063Z,2.22
2022-07-29T12:42:20.729Z,1.88
2022-07-29T12:43:28.152Z,2.38
2022-07-29T12:44:48.996Z,1.92
2022-07-29T12:45:57.251Z,2.06
2022-07-29T12:47:04.903Z,2.17
2022-07-29T12:48:13.386Z,1.89
2022-07-29T12:49:23.360Z,2.22
2022-07-29T12:50:29.237Z,1.96
2022-07-29T12:51:38.842Z,1.95
2022-07-29T12:52:43.464Z,2.16
2022-07-29T12:54:09.391Z,2.24
2022-07-29T12:55:12.653Z,1.91
2022-07-29T12:56:41.766Z,2.01
2022-07-29T12:57:26.511Z,2.34
2022-07-29T12:58:38.164Z,2.33
2022-07-29T13:00:45.633Z,2.08
2022-07-29T13:01:53.681Z,2.02
2022-07-29T13:02:59.668Z,1.92
2022-07-29T13:04:07.621Z,2.03
2022-07-29T13:05:14.523Z,2.02
2022-07-29T13:06:42.116Z,2.16
2022-07-29T13:07:55.483Z,2.00
2022-07-29T13:09:07.005Z,1.94
2022-07-29T13:10:13.966Z,2.11
2022-07-29T13:11:36.581Z,2.22
2022-07-29T13:12:40.962Z,2.34
2022-07-29T13:14:06.873Z,2.21
2022-07-29T13:15:00.095Z,2.31
2022-07-29T13:16:10.338Z,2.18
2022-07-29T13:17:19.609Z,2.28
2022-07-29T13:18:39.534Z,2.11
2022-07-29T13:19:48.678Z,2.06
2022-07-29T13:20:52.509Z,2.11
2022-07-29T13:21:56.865Z,2.60
2022-07-29T13:23:03.320Z,2.14
2022-07-29T13:24:11.157Z,2.43
2022-07-29T13:25:15.393Z,2.11
2022-07-29T13:26:21.442Z,2.28
2022-07-29T13:27:31.945Z,2.37
2022-07-29T13:28:38.418Z,2.08
2022-07-29T13:29:41.112Z,2.31
2022-07-29T13:30:45.396Z,1.94
2022-07-29T13:31:49.028Z,2.33
2022-07-29T13:34:15.974Z,2.16
2022-07-29T13:35:21.833Z,2.33
2022-07-29T13:36:29.973Z,2.33
2022-07-29T13:37:38.422Z,2.39
2022-07-29T13:39:54.019Z,1.99
2022-07-29T13:41:01.288Z,2.14
2022-07-29T13:42:10.754Z,2.26
2022-07-29T13:43:13.251Z,2.46
2022-07-29T13:44:16.812Z,2.22
2022-07-29T13:45:20.492Z,2.36
2022-07-29T13:46:27.658Z,2.51
2022-07-29T13:47:32.206Z,2.34
2022-07-29T13:48:36.308Z,2.36
2022-07-29T13:49:43.318Z,2.31
2022-07-29T13:50:52.634Z,2.54
2022-07-29T13:51:59.262Z,2.15
2022-07-29T13:53:06.432Z,2.24
2022-07-29T13:54:09.281Z,2.37
2022-07-29T13:55:13.519Z,2.29
2022-07-29T13:56:18.822Z,2.49
2022-07-29T13:57:26.900Z,2.37
2022-07-29T13:58:30.808Z,2.32
2022-07-29T13:59:34.610Z,2.08
2022-07-29T14:00:45.141Z,2.43
2022-07-29T14:01:50.661Z,2.25
2022-07-29T14:02:54.031Z,2.19
2022-07-29T14:03:57.721Z,2.12
2022-07-29T14:05:04.941Z,2.27
2022-07-29T14:06:06.916Z,2.22
2022-07-29T14:07:11.397Z,2.38
2022-07-29T14:08:16.843Z,2.49
2022-07-29T14:09:19.672Z,2.16
2022-07-29T14:10:22.551Z,2.28
2022-07-29T14:11:25.650Z,2.29
2022-07-29T14:12:28.312Z,2.06
2022-07-29T14:13:31.840Z,2.27
2022-07-29T14:14:38.862Z,2.52
2022-07-29T14:15:43.443Z,2.33
2022-07-29T14:16:52.456Z,2.29
2022-07-29T14:17:56.429Z,2.20
2022-07-29T14:19:00.399Z,2.51
2022-07-29T14:20:08.863Z,2.27
2022-07-29T14:21:14.364Z,2.43
2022-07-29T14:22:25.463Z,2.43
2022-07-29T14:23:29.307Z,2.20
2022-07-29T14:24:32.920Z,2.67
2022-07-29T14:25:38.658Z,2.43
2022-07-29T14:26:43.077Z,2.46
2022-07-29T14:27:48.383Z,2.69
2022-07-29T14:29:01.706Z,2.71
2022-07-29T14:30:07.819Z,2.83
2022-07-29T14:31:14.079Z,2.62
2022-07-29T14:32:17.607Z,2.54
2022-07-29T14:33:22.400Z,2.62
2022-07-29T14:34:25.085Z,2.47
2022-07-29T14:35:28.761Z,2.51
2022-07-29T14:36:36.340Z,2.55
2022-07-29T14:37:40.550Z,2.48
2022-07-29T14:38:44.460Z,2.51
2022-07-29T14:39:47.134Z,2.70
2022-07-29T14:40:50.868Z,2.41
2022-07-29T14:41:55.308Z,2.19
2022-07-29T14:43:01.080Z,2.60
2022-07-29T14:44:06.613Z,2.31
2022-07-29T14:45:11.953Z,2.41
2022-07-29T14:46:15.816Z,2.41
2022-07-29T14:47:19.256Z,2.54
2022-07-29T14:48:23.663Z,2.44
2022-07-29T14:49:31.386Z,2.21
2022-07-29T14:50:34.698Z,2.39
2022-07-29T14:51:42.588Z,2.33
2022-07-29T14:52:45.414Z,2.23
2022-07-29T14:53:53.343Z,2.41
2022-07-29T14:54:58.745Z,2.36
2022-07-29T14:56:21.261Z,2.74
2022-07-29T14:57:15.018Z,2.44
2022-07-29T14:58:18.808Z,2.62
2022-07-29T14:59:25.819Z,2.69
2022-07-29T15:00:34.752Z,2.43
2022-07-29T15:01:38.051Z,2.60
2022-07-29T15:03:02.323Z,2.39
2022-07-29T15:03:50.007Z,2.08
2022-07-29T15:04:54.813Z,2.44
2022-07-29T15:06:02.390Z,2.57
2022-07-29T15:07:06.072Z,2.63
2022-07-29T15:08:09.884Z,2.51
2022-07-29T15:10:31.065Z,2.54
2022-07-29T15:11:38.314Z,2.46
2022-07-29T15:12:43.180Z,2.44
2022-07-29T15:13:49.394Z,2.42
2022-07-29T15:14:53.061Z,2.34
2022-07-29T15:16:00.017Z,2.29
2022-07-29T15:17:03.407Z,2.48
2022-07-29T15:19:20.796Z,2.38
2022-07-29T15:20:27.538Z,2.44
2022-07-29T15:21:32.051Z,2.23
2022-07-29T15:22:35.866Z,2.45
2022-07-29T15:23:40.311Z,2.41
2022-07-29T15:24:44.641Z,2.29
2022-07-29T15:27:00.297Z,2.62
2022-07-29T15:28:09.097Z,2.19
2022-07-29T15:30:31.516Z,2.64
2022-07-29T15:31:26.773Z,2.61
2022-07-29T15:32:33.253Z,2.31
2022-07-29T15:33:38.390Z,2.42
2022-07-29T15:34:41.826Z,2.29
2022-07-29T15:35:45.503Z,2.36
2022-07-29T15:36:53.334Z,2.09
2022-07-29T15:37:58.291Z,2.43
2022-07-29T15:39:03.211Z,2.26
2022-07-29T15:40:08.821Z,2.29
2022-07-29T15:41:18.178Z,2.20
2022-07-29T15:42:23.094Z,2.28
2022-07-29T15:43:26.932Z,2.38
2022-07-29T15:44:30.778Z,2.47
2022-07-29T15:45:41.065Z,2.58
2022-07-29T15:47:08.741Z,2.49
2022-07-29T15:48:14.794Z,2.03
2022-07-29T15:49:19.749Z,2.26
2022-07-29T15:50:27.046Z,2.29
2022-07-29T15:51:30.979Z,2.21
2022-07-29T15:52:33.780Z,2.27
2022-07-29T15:53:37.518Z,2.24
2022-07-29T15:54:43.379Z,2.38
2022-07-29T15:55:47.812Z,2.48
2022-07-29T15:56:50.481Z,2.35
2022-07-29T15:57:58.459Z,2.25
2022-07-29T15:59:00.945Z,2.34
2022-07-29T16:00:10.140Z,2.53
2022-07-29T16:01:14.148Z,2.53
2022-07-29T16:02:18.391Z,2.51
2022-07-29T16:03:22.624Z,3.16
2022-07-29T16:04:26.534Z,2.54
2022-07-29T16:05:31.301Z,2.31
2022-07-29T16:06:37.799Z,2.43
2022-07-29T16:07:41.510Z,2.47
2022-07-29T16:08:44.566Z,2.42
2022-07-29T16:09:53.371Z,2.47
2022-07-29T16:10:57.977Z,2.48
2022-07-29T16:12:00.861Z,2.35
2022-07-29T16:13:04.885Z,2.05
2022-07-29T16:14:09.273Z,2.30
2022-07-29T16:15:16.036Z,2.51
2022-07-29T16:16:24.110Z,2.58
2022-07-29T16:17:28.511Z,2.47
2022-07-29T16:18:32.339Z,2.29
2022-07-29T16:19:37.504Z,2.61
2022-07-29T16:20:43.762Z,2.59